createdAt,value
2023-05-15T00:01:20.814Z,76.13
2023-05-15T00:03:48.683Z,76.53
2023-05-15T00:06:16.186Z,75.74
2023-05-15T00:08:44.970Z,76.39
2023-05-15T00:11:12.748Z,75.84
2023-05-15T00:13:40.209Z,75.92
2023-05-15T00:16:10.834Z,76.07
2023-05-15T00:18:38.595Z,78.90
2023-05-15T00:21:06.460Z,77.31
2023-05-15T00:23:33.905Z,76.48
2023-05-15T00:26:01.627Z,75.20
2023-05-15T00:28:29.045Z,75.70
2023-05-15T00:30:56.672Z,74.73
2023-05-15T00:33:24.426Z,74.48
2023-05-15T00:35:51.886Z,73.95
2023-05-15T00:38:19.321Z,73.72
2023-05-15T00:40:47.319Z,72.81
2023-05-15T00:43:15.305Z,72.54
2023-05-15T00:45:43.647Z,73.06
2023-05-15T00:48:11.552Z,73.43
2023-05-15T00:50:41.587Z,73.18
2023-05-15T00:53:09.260Z,72.78
2023-05-15T00:55:37.578Z,73.03
2023-05-15T00:58:05.324Z,72.08
2023-05-15T01:00:33.664Z,72.46
2023-05-15T01:03:01.944Z,73.40
2023-05-15T01:05:29.618Z,73.06
2023-05-15T01:08:26.995Z,74.15
2023-05-15T01:10:55.636Z,74.63
2023-05-15T01:13:23.410Z,75.28
2023-05-15T01:15:51.009Z,74.94
2023-05-15T01:18:18.824Z,75.75
2023-05-15T01:21:18.575Z,75.15
2023-05-15T01:24:05.040Z,75.66
2023-05-15T01:26:40.821Z,75.30
2023-05-15T01:29:23.624Z,75.21
2023-05-15T01:32:02.489Z,75.97
2023-05-15T01:34:38.255Z,76.59
2023-05-15T01:37:06.749Z,76.99
2023-05-15T01:39:35.946Z,76.78
2023-05-15T01:42:11.055Z,77.48
2023-05-15T01:44:46.280Z,76.93
2023-05-15T01:47:15.550Z,77.20
2023-05-15T01:49:45.675Z,76.41
2023-05-15T01:52:31.273Z,76.55
2023-05-15T01:55:01.298Z,76.00
2023-05-15T01:57:29.879Z,75.57
2023-05-15T01:59:58.047Z,74.61
2023-05-15T02:02:27.382Z,74.45
2023-05-15T02:04:55.897Z,74.28
2023-05-15T02:07:23.784Z,73.54
2023-05-15T02:09:52.781Z,73.10
2023-05-15T02:12:21.280Z,72.36
2023-05-15T02:14:49.789Z,71.92
2023-05-15T02:17:17.465Z,71.68
2023-05-15T02:19:44.899Z,72.04
2023-05-15T02:22:12.669Z,71.12
2023-05-15T02:24:40.875Z,70.69
2023-05-15T02:27:28.119Z,70.56
2023-05-15T02:30:06.533Z,70.14
2023-05-15T02:32:40.237Z,70.00
2023-05-15T02:35:27.476Z,69.83
2023-05-15T02:37:56.805Z,69.73
2023-05-15T02:40:26.703Z,69.47
2023-05-15T02:42:54.675Z,69.21
2023-05-15T02:45:22.480Z,68.96
2023-05-15T02:47:51.737Z,68.82
2023-05-15T02:50:19.707Z,68.78
2023-05-15T02:52:47.207Z,68.41
2023-05-15T02:55:14.876Z,68.20
2023-05-15T02:57:42.419Z,68.11
2023-05-15T03:00:13.539Z,67.96
2023-05-15T03:02:41.357Z,68.15
2023-05-15T03:05:09.108Z,67.80
2023-05-15T03:07:36.556Z,67.65
2023-05-15T03:10:04.654Z,67.50
2023-05-15T03:12:32.048Z,67.56
2023-05-15T03:14:59.491Z,67.73
2023-05-15T03:17:27.342Z,68.06
2023-05-15T03:19:54.930Z,68.16
2023-05-15T03:22:22.426Z,68.85
2023-05-15T03:24:50.166Z,69.66
2023-05-15T03:27:17.598Z,68.54
2023-05-15T03:29:45.186Z,68.69
2023-05-15T03:32:12.933Z,68.51
2023-05-15T03:34:41.047Z,68.38
2023-05-15T03:37:08.921Z,68.67
2023-05-15T03:39:36.671Z,68.79
2023-05-15T03:42:05.479Z,68.30
2023-05-15T03:44:33.350Z,67.96
2023-05-15T03:47:01.111Z,67.91
2023-05-15T03:49:28.601Z,67.51
2023-05-15T03:51:56.905Z,67.36
2023-05-15T03:54:24.686Z,67.41
2023-05-15T03:56:53.477Z,67.44
2023-05-15T03:59:20.972Z,67.31
2023-05-15T04:02:03.589Z,67.56
2023-05-15T04:04:32.990Z,67.28
2023-05-15T04:07:00.816Z,67.33
2023-05-15T04:09:28.279Z,67.57
2023-05-15T04:11:56.094Z,69.20
2023-05-15T04:14:23.492Z,69.25
2023-05-15T04:16:51.031Z,68.68
2023-05-15T04:19:18.889Z,69.00
2023-05-15T04:21:46.426Z,68.02
2023-05-15T04:24:13.805Z,68.72
2023-05-15T04:26:42.247Z,68.40
2023-05-15T04:29:10.147Z,68.62
2023-05-15T04:31:38.560Z,68.03
2023-05-15T04:34:06.607Z,67.79
2023-05-15T04:36:34.981Z,67.64
2023-05-15T04:39:02.452Z,67.61
2023-05-15T04:41:30.405Z,67.31
2023-05-15T04:43:57.863Z,67.22
2023-05-15T04:46:25.347Z,67.19
2023-05-15T04:48:53.153Z,67.12
2023-05-15T04:51:20.538Z,66.86
2023-05-15T04:53:47.975Z,66.93
2023-05-15T04:56:15.656Z,66.96
2023-05-15T04:58:43.122Z,67.04
2023-05-15T05:01:10.815Z,67.12
2023-05-15T05:03:38.636Z,67.10
2023-05-15T05:06:06.269Z,67.02
2023-05-15T05:08:33.654Z,67.01
2023-05-15T05:11:01.497Z,67.21
2023-05-15T05:13:28.924Z,67.06
2023-05-15T05:15:56.398Z,66.99
2023-05-15T05:18:24.345Z,66.82
2023-05-15T05:20:59.485Z,66.88
2023-05-15T05:23:27.799Z,66.94
2023-05-15T05:25:55.222Z,67.03
2023-05-15T05:28:22.945Z,67.24
2023-05-15T05:30:51.115Z,67.60
2023-05-15T05:33:18.658Z,68.58
2023-05-15T05:35:46.034Z,68.77
2023-05-15T05:38:13.795Z,67.74
2023-05-15T05:40:41.310Z,67.58
2023-05-15T05:43:08.747Z,67.79
2023-05-15T05:45:36.482Z,67.65
2023-05-15T05:48:04.042Z,67.83
2023-05-15T05:50:31.470Z,67.64
2023-05-15T05:52:59.193Z,68.33
2023-05-15T05:55:26.850Z,68.07
2023-05-15T05:57:54.510Z,68.42
2023-05-15T06:00:22.504Z,68.21
2023-05-15T06:02:53.601Z,68.07
2023-05-15T06:05:21.106Z,68.35
2023-05-15T06:07:48.582Z,68.51
2023-05-15T06:10:16.283Z,68.59
2023-05-15T06:12:43.717Z,68.50
2023-05-15T06:15:11.787Z,68.01
2023-05-15T06:17:39.552Z,68.65
2023-05-15T06:20:10.354Z,68.47
2023-05-15T06:22:38.212Z,68.21
2023-05-15T06:25:06.779Z,68.30
2023-05-15T06:27:34.455Z,67.93
2023-05-15T06:30:01.908Z,67.32
2023-05-15T06:32:34.622Z,67.02
2023-05-15T06:35:02.843Z,67.13
2023-05-15T06:37:33.068Z,66.76
2023-05-15T06:40:01.236Z,66.44
2023-05-15T06:42:28.686Z,66.41
2023-05-15T06:44:57.407Z,65.91
2023-05-15T06:47:25.019Z,66.27
2023-05-15T06:49:54.170Z,66.26
2023-05-15T06:52:21.908Z,67.27
2023-05-15T06:54:49.360Z,66.95
2023-05-15T06:57:16.812Z,67.98
2023-05-15T06:59:44.552Z,68.43
2023-05-15T07:02:12.077Z,67.53
2023-05-15T07:04:39.751Z,65.77
2023-05-15T07:07:07.557Z,66.14
2023-05-15T07:09:35.557Z,66.40
2023-05-15T07:12:03.879Z,65.49
2023-05-15T07:14:31.806Z,65.37
2023-05-15T07:16:59.301Z,66.11
2023-05-15T07:19:26.927Z,66.25
2023-05-15T07:21:54.696Z,65.96
2023-05-15T07:24:22.135Z,64.87
2023-05-15T07:26:58.329Z,65.06
2023-05-15T07:29:27.022Z,65.41
2023-05-15T07:31:54.587Z,64.72
2023-05-15T07:34:22.129Z,64.88
2023-05-15T07:36:49.820Z,64.54
2023-05-15T07:39:17.318Z,64.29
2023-05-15T07:41:46.968Z,64.78
2023-05-15T07:44:14.735Z,63.81
2023-05-15T07:46:42.274Z,65.22
2023-05-15T07:49:09.708Z,66.95
2023-05-15T07:51:37.485Z,66.33
2023-05-15T07:54:05.028Z,65.69
2023-05-15T07:56:33.222Z,65.99
2023-05-15T07:59:01.020Z,66.39
2023-05-15T08:01:30.585Z,67.84
2023-05-15T08:03:59.166Z,66.90
2023-05-15T08:06:26.901Z,67.47
2023-05-15T08:08:54.308Z,67.61
2023-05-15T08:11:22.115Z,66.13
2023-05-15T08:13:49.663Z,66.91
2023-05-15T08:16:18.513Z,68.51
2023-05-15T08:18:46.337Z,69.64
2023-05-15T08:21:13.876Z,67.82
2023-05-15T08:23:41.340Z,66.54
2023-05-15T08:26:09.258Z,66.42
2023-05-15T08:28:36.705Z,66.74
2023-05-15T08:31:04.125Z,67.42
2023-05-15T08:33:31.886Z,67.97
2023-05-15T08:35:59.373Z,66.76
2023-05-15T08:38:26.784Z,65.55
2023-05-15T08:40:58.211Z,64.12
2023-05-15T08:43:26.361Z,64.28
2023-05-15T08:45:54.280Z,65.58
2023-05-15T08:48:25.377Z,63.28
2023-05-15T08:50:53.193Z,62.73
2023-05-15T08:53:21.371Z,62.37
2023-05-15T08:55:49.164Z,62.15
2023-05-15T08:58:21.415Z,59.87
2023-05-15T09:00:49.708Z,61.15
2023-05-15T09:03:18.354Z,60.72
2023-05-15T09:05:48.263Z,60.15
2023-05-15T09:08:17.060Z,62.68
2023-05-15T09:10:44.604Z,63.96
2023-05-15T09:13:12.486Z,65.53
2023-05-15T09:15:40.677Z,62.50
2023-05-15T09:18:08.579Z,60.53
2023-05-15T09:20:37.553Z,59.61
2023-05-15T09:23:06.301Z,61.25
2023-05-15T09:25:41.740Z,62.98
2023-05-15T09:28:11.577Z,62.36
2023-05-15T09:30:39.693Z,62.97
2023-05-15T09:33:07.258Z,62.47
2023-05-15T09:35:39.089Z,63.30
2023-05-15T09:38:12.829Z,65.47
2023-05-15T09:40:41.052Z,62.89
2023-05-15T09:43:11.123Z,63.35
2023-05-15T09:45:38.668Z,62.65
2023-05-15T09:48:07.695Z,62.59
2023-05-15T09:50:36.812Z,60.56
2023-05-15T09:53:05.030Z,56.64
2023-05-15T09:55:34.159Z,59.20
2023-05-15T09:58:08.472Z,58.51
2023-05-15T10:00:47.609Z,58.62
2023-05-15T10:03:19.747Z,57.15
2023-05-15T10:05:47.409Z,59.91
2023-05-15T10:08:15.957Z,59.51
2023-05-15T10:10:44.924Z,59.58
2023-05-15T10:13:12.364Z,58.55
2023-05-15T10:15:40.519Z,58.51
2023-05-15T10:18:08.865Z,58.35
2023-05-15T10:20:37.126Z,59.70
2023-05-15T10:23:06.321Z,59.70
2023-05-15T10:25:51.872Z,59.20
2023-05-15T10:28:20.100Z,60.61
2023-05-15T10:30:48.341Z,59.37
2023-05-15T10:33:16.114Z,60.10
2023-05-15T10:35:44.266Z,60.05
2023-05-15T10:38:12.990Z,58.39
2023-05-15T10:40:41.086Z,58.38
2023-05-15T10:43:10.366Z,59.84
2023-05-15T10:45:38.296Z,59.50
2023-05-15T10:48:07.835Z,57.72
2023-05-15T10:50:36.976Z,57.82
2023-05-15T10:53:04.753Z,58.41
2023-05-15T10:55:32.242Z,60.19
2023-05-15T10:57:59.716Z,60.05
2023-05-15T11:00:29.262Z,57.96
2023-05-15T11:02:58.671Z,60.13
2023-05-15T11:05:26.919Z,57.68
2023-05-15T11:08:13.626Z,57.58
2023-05-15T11:10:41.444Z,58.21
2023-05-15T11:13:09.264Z,55.07
2023-05-15T11:15:47.493Z,54.43
2023-05-15T11:18:15.724Z,55.72
2023-05-15T11:20:52.147Z,58.00
2023-05-15T11:23:23.275Z,56.63
2023-05-15T11:25:55.085Z,57.03
2023-05-15T11:28:24.088Z,58.35
2023-05-15T11:30:52.618Z,56.43
2023-05-15T11:33:20.845Z,54.66
2023-05-15T11:35:48.735Z,54.24
2023-05-15T11:38:18.316Z,53.44
2023-05-15T11:40:48.834Z,53.29
2023-05-15T11:43:27.671Z,53.56
2023-05-15T11:45:58.724Z,55.31
2023-05-15T11:48:31.959Z,54.09
2023-05-15T11:51:01.363Z,53.31
2023-05-15T11:53:33.303Z,54.23
2023-05-15T11:56:01.000Z,55.20
2023-05-15T11:58:28.723Z,53.33
2023-05-15T12:00:58.014Z,53.72
2023-05-15T12:03:38.006Z,53.36
2023-05-15T12:06:06.351Z,52.84
2023-05-15T12:08:35.439Z,53.82
2023-05-15T12:11:03.810Z,52.68
2023-05-15T12:13:32.444Z,53.15
2023-05-15T12:16:01.649Z,51.78
2023-05-15T12:18:33.074Z,51.53
2023-05-15T12:21:01.005Z,52.36
2023-05-15T12:23:28.680Z,52.38
2023-05-15T12:26:00.125Z,53.21
2023-05-15T12:28:28.760Z,52.19
2023-05-15T12:30:56.787Z,51.95
2023-05-15T12:33:24.885Z,49.73
2023-05-15T12:35:59.137Z,50.30
2023-05-15T12:38:29.130Z,51.09
2023-05-15T12:40:57.255Z,51.53
2023-05-15T12:43:26.186Z,51.57
2023-05-15T12:45:55.141Z,50.78
2023-05-15T12:48:23.633Z,51.43
2023-05-15T12:50:51.678Z,51.70
2023-05-15T12:53:22.129Z,51.54
2023-05-15T12:55:51.062Z,51.87
2023-05-15T12:58:19.221Z,52.33
2023-05-15T13:00:47.995Z,50.15
2023-05-15T13:03:16.005Z,52.07
2023-05-15T13:05:45.409Z,50.77
2023-05-15T13:08:17.725Z,49.99
2023-05-15T13:10:46.803Z,50.42
2023-05-15T13:13:14.857Z,48.67
2023-05-15T13:15:44.050Z,51.57
2023-05-15T13:18:16.212Z,49.35
2023-05-15T13:20:52.274Z,50.40
2023-05-15T13:23:21.588Z,48.76
2023-05-15T13:25:49.048Z,48.37
2023-05-15T13:28:16.570Z,48.68
2023-05-15T13:30:44.432Z,50.12
2023-05-15T13:33:12.630Z,49.56
2023-05-15T13:35:41.296Z,49.48
2023-05-15T13:38:11.537Z,48.92
2023-05-15T13:40:39.655Z,49.00
2023-05-15T13:43:07.113Z,49.30
2023-05-15T13:45:35.138Z,47.54
2023-05-15T13:48:03.221Z,49.73
2023-05-15T13:50:30.697Z,48.88
2023-05-15T13:52:58.693Z,47.29
2023-05-15T13:55:26.203Z,46.46
2023-05-15T13:57:53.625Z,47.69
2023-05-15T14:00:21.757Z,48.29
2023-05-15T14:02:49.487Z,47.07
2023-05-15T14:05:17.434Z,48.23
2023-05-15T14:07:45.328Z,47.77
2023-05-15T14:10:13.212Z,48.72
2023-05-15T14:12:40.774Z,47.72
2023-05-15T14:15:08.724Z,46.57
2023-05-15T14:17:36.997Z,46.31
2023-05-15T14:20:05.427Z,46.26
2023-05-15T14:22:33.205Z,48.63
2023-05-15T14:25:00.951Z,46.91
2023-05-15T14:27:28.779Z,48.23
2023-05-15T14:29:59.386Z,46.88
2023-05-15T14:32:27.333Z,46.40
2023-05-15T14:34:56.970Z,47.08
2023-05-15T14:37:24.372Z,46.15
2023-05-15T14:39:52.251Z,48.09
2023-05-15T14:42:20.925Z,47.71
2023-05-15T14:44:48.720Z,46.77
2023-05-15T14:47:16.914Z,47.37
2023-05-15T14:49:44.412Z,46.66
2023-05-15T14:52:14.874Z,48.10
2023-05-15T14:54:43.680Z,47.67
2023-05-15T14:57:11.276Z,47.25
2023-05-15T14:59:38.810Z,47.52
2023-05-15T15:02:07.194Z,46.90
2023-05-15T15:04:34.699Z,47.04
2023-05-15T15:07:03.847Z,45.88
2023-05-15T15:09:31.640Z,47.32
2023-05-15T15:11:59.073Z,47.21
2023-05-15T15:14:26.515Z,47.03
2023-05-15T15:16:54.527Z,46.99
2023-05-15T15:19:22.262Z,46.90
2023-05-15T15:21:49.808Z,47.47
2023-05-15T15:24:17.591Z,48.20
2023-05-15T15:26:45.009Z,48.89
2023-05-15T15:29:12.468Z,49.16
2023-05-15T15:31:40.222Z,49.01
2023-05-15T15:34:09.079Z,48.55
2023-05-15T15:36:38.697Z,48.96
2023-05-15T15:39:06.446Z,50.32
2023-05-15T15:41:37.397Z,50.48
2023-05-15T15:44:05.573Z,50.08
2023-05-15T15:46:33.514Z,50.87
2023-05-15T15:49:01.105Z,49.63
2023-05-15T15:51:28.579Z,49.66
2023-05-15T15:53:56.287Z,51.09
2023-05-15T15:56:23.731Z,49.02
2023-05-15T15:58:51.113Z,50.57
2023-05-15T16:01:19.036Z,50.45
2023-05-15T16:03:46.832Z,49.33
2023-05-15T16:06:14.279Z,50.94
2023-05-15T16:08:41.723Z,49.44
2023-05-15T16:11:09.507Z,48.90
2023-05-15T16:13:37.586Z,49.74
2023-05-15T16:16:06.157Z,50.11
2023-05-15T16:18:34.589Z,49.76
2023-05-15T16:21:02.334Z,49.18
2023-05-15T16:23:36.597Z,48.23
2023-05-15T16:26:05.078Z,49.20
2023-05-15T16:28:32.529Z,48.85
2023-05-15T16:31:00.323Z,48.69
2023-05-15T16:33:29.708Z,48.59
2023-05-15T16:35:57.378Z,47.70
2023-05-15T16:38:24.815Z,47.71
2023-05-15T16:40:52.494Z,48.43
2023-05-15T16:43:21.877Z,48.44
2023-05-15T16:45:49.450Z,47.82
2023-05-15T16:48:17.241Z,47.97
2023-05-15T16:50:44.698Z,47.19
2023-05-15T16:53:12.430Z,45.98
2023-05-15T16:55:40.494Z,45.67
2023-05-15T16:58:08.583Z,45.92
2023-05-15T17:00:36.156Z,46.51
2023-05-15T17:03:05.696Z,46.03
2023-05-15T17:05:33.892Z,45.98
2023-05-15T17:08:01.385Z,46.57
2023-05-15T17:10:29.232Z,46.78
2023-05-15T17:12:56.766Z,46.69
2023-05-15T17:15:24.518Z,47.12
2023-05-15T17:17:52.367Z,47.13
2023-05-15T17:20:19.847Z,46.62
2023-05-15T17:22:47.485Z,46.54
2023-05-15T17:25:15.684Z,46.67
2023-05-15T17:27:43.156Z,46.80
2023-05-15T17:30:11.972Z,46.49
2023-05-15T17:32:40.227Z,46.20
2023-05-15T17:35:08.408Z,46.24
2023-05-15T17:37:35.938Z,46.37
2023-05-15T17:40:04.129Z,46.51
2023-05-15T17:42:31.631Z,46.66
2023-05-15T17:44:59.639Z,46.97
2023-05-15T17:47:27.383Z,47.11
2023-05-15T17:49:55.518Z,47.19
2023-05-15T17:52:23.068Z,47.42
2023-05-15T17:54:50.941Z,47.58
2023-05-15T17:57:18.400Z,47.58
2023-05-15T17:59:45.835Z,48.06
2023-05-15T18:02:13.610Z,48.36
2023-05-15T18:04:41.513Z,48.59
2023-05-15T18:07:08.964Z,48.97
2023-05-15T18:09:36.458Z,49.29
2023-05-15T18:12:04.314Z,49.41
2023-05-15T18:14:32.136Z,49.50
2023-05-15T18:16:59.550Z,49.60
2023-05-15T18:19:27.410Z,50.01
2023-05-15T18:21:54.861Z,50.03
2023-05-15T18:24:22.547Z,50.12
2023-05-15T18:26:50.568Z,50.42
2023-05-15T18:29:18.078Z,50.37
2023-05-15T18:31:45.905Z,50.36
2023-05-15T18:34:13.638Z,50.35
2023-05-15T18:36:41.070Z,50.63
2023-05-15T18:39:08.532Z,50.72
2023-05-15T18:41:36.535Z,50.77
2023-05-15T18:44:04.370Z,51.03
2023-05-15T18:46:31.936Z,51.30
2023-05-15T18:48:59.988Z,51.71
2023-05-15T18:51:27.703Z,51.89
2023-05-15T18:53:56.222Z,52.02
2023-05-15T18:56:25.155Z,52.90
2023-05-15T18:58:54.070Z,52.87
2023-05-15T19:01:22.165Z,53.10
2023-05-15T19:03:50.245Z,53.52
2023-05-15T19:06:20.145Z,53.77
2023-05-15T19:08:48.773Z,53.87
2023-05-15T19:11:16.885Z,53.82
2023-05-15T19:13:44.324Z,54.08
2023-05-15T19:16:12.416Z,54.48
2023-05-15T19:18:40.206Z,54.92
2023-05-15T19:21:08.035Z,55.14
2023-05-15T19:23:35.502Z,54.99
2023-05-15T19:26:03.398Z,55.22
2023-05-15T19:28:30.885Z,55.40
2023-05-15T19:30:58.308Z,55.47
2023-05-15T19:33:26.055Z,55.51
2023-05-15T19:35:53.798Z,55.62
2023-05-15T19:38:21.546Z,55.97
2023-05-15T19:40:49.479Z,55.98
2023-05-15T19:43:16.935Z,56.59
2023-05-15T19:45:44.497Z,56.26
2023-05-15T19:48:12.807Z,56.32
2023-05-15T19:50:40.336Z,56.39
2023-05-15T19:53:08.364Z,56.41
2023-05-15T19:55:36.176Z,56.62
2023-05-15T19:58:03.837Z,56.55
2023-05-15T20:00:31.708Z,56.51
2023-05-15T20:03:00.971Z,56.79
2023-05-15T20:05:29.103Z,56.69
2023-05-15T20:07:56.659Z,56.92
2023-05-15T20:10:24.958Z,56.57
2023-05-15T20:12:52.756Z,56.74
2023-05-15T20:15:20.235Z,56.76
2023-05-15T20:17:48.242Z,56.50
2023-05-15T20:20:16.639Z,56.43
2023-05-15T20:22:44.728Z,56.57
2023-05-15T20:25:12.475Z,56.46
2023-05-15T20:27:40.002Z,56.42
2023-05-15T20:30:07.992Z,56.71
2023-05-15T20:32:36.373Z,56.98
2023-05-15T20:35:04.494Z,57.13
2023-05-15T20:37:32.083Z,57.28
2023-05-15T20:40:00.233Z,57.53
2023-05-15T20:42:28.492Z,57.88
2023-05-15T20:44:55.967Z,57.68
2023-05-15T20:47:23.809Z,57.67
2023-05-15T20:49:51.339Z,57.53
2023-05-15T20:52:19.083Z,57.53
2023-05-15T20:54:46.810Z,57.56
2023-05-15T20:57:14.257Z,57.70
2023-05-15T20:59:41.854Z,57.56
2023-05-15T21:02:09.571Z,57.27
2023-05-15T21:04:37.228Z,57.10
2023-05-15T21:07:04.840Z,57.05
2023-05-15T21:09:33.210Z,56.95
2023-05-15T21:12:00.830Z,57.06
2023-05-15T21:14:28.308Z,57.77
2023-05-15T21:16:55.990Z,57.55
2023-05-15T21:19:23.984Z,57.50
2023-05-15T21:21:51.502Z,57.51
2023-05-15T21:24:19.214Z,57.80
2023-05-15T21:26:46.999Z,57.97
2023-05-15T21:29:14.593Z,57.35
2023-05-15T21:31:42.418Z,57.30
2023-05-15T21:34:09.856Z,57.08
2023-05-15T21:36:37.258Z,56.99
2023-05-15T21:39:04.968Z,56.99
2023-05-15T21:41:32.597Z,57.13
2023-05-15T21:44:00.068Z,58.01
2023-05-15T21:46:27.866Z,57.36
2023-05-15T21:48:55.520Z,57.11
2023-05-15T21:51:22.947Z,57.34
2023-05-15T21:53:50.865Z,57.66
2023-05-15T21:56:18.247Z,57.88
2023-05-15T21:58:45.902Z,57.84
2023-05-15T22:01:15.080Z,57.69
2023-05-15T22:03:43.033Z,57.90
2023-05-15T22:06:10.646Z,58.34
2023-05-15T22:08:38.045Z,57.82
2023-05-15T22:11:06.742Z,57.53
2023-05-15T22:13:34.331Z,57.44
2023-05-15T22:16:01.898Z,57.46
2023-05-15T22:18:29.770Z,57.92
2023-05-15T22:20:57.568Z,57.74
2023-05-15T22:23:25.042Z,57.59
2023-05-15T22:25:52.797Z,57.36
2023-05-15T22:28:21.230Z,57.25
2023-05-15T22:30:49.233Z,57.13
2023-05-15T22:33:16.932Z,57.33
2023-05-15T22:35:44.623Z,57.31
2023-05-15T22:38:12.350Z,56.94
2023-05-15T22:40:40.118Z,56.67
2023-05-15T22:43:07.518Z,57.07
2023-05-15T22:45:35.083Z,56.84
2023-05-15T22:48:03.825Z,56.86
2023-05-15T22:50:31.593Z,57.14
2023-05-15T22:52:59.053Z,57.20
2023-05-15T22:55:27.197Z,57.83
2023-05-15T22:57:54.670Z,56.96
2023-05-15T23:00:22.174Z,57.13
2023-05-15T23:02:50.073Z,57.29
2023-05-15T23:05:17.591Z,57.20
2023-05-15T23:07:45.096Z,57.09
2023-05-15T23:10:12.823Z,57.15
2023-05-15T23:12:40.202Z,56.81
2023-05-15T23:15:08.180Z,56.84
2023-05-15T23:17:36.210Z,57.46
2023-05-15T23:20:06.897Z,57.20
2023-05-15T23:22:34.938Z,57.88
2023-05-15T23:25:04.216Z,57.96
2023-05-15T23:27:31.774Z,57.96
2023-05-15T23:29:59.287Z,58.02
2023-05-15T23:32:27.038Z,58.15
2023-05-15T23:34:54.565Z,58.33
2023-05-15T23:37:22.015Z,58.49
2023-05-15T23:39:49.759Z,58.55
2023-05-15T23:42:17.181Z,58.43
2023-05-15T23:44:44.682Z,58.39
2023-05-15T23:47:12.442Z,58.55
2023-05-15T23:49:39.923Z,58.66
2023-05-15T23:52:07.346Z,58.50
2023-05-15T23:54:35.079Z,58.39
2023-05-15T23:57:03.434Z,58.36
2023-05-15T23:59:31.367Z,58.33
